METAR AND TAF INFORMATION
METAR FOR RJSI
ADDS - METARS form results

(2343 UTC 11 December 2018)
Data provider http://aviationweather.gov/metar/data/
 
METAR text: RJSI 112300Z 00000KT 1500 R20/1300V1800U -SN BR FEW003 SCT006 BKN015 M01/M01 Q1015
Conditions at: RJSI (HANAMAKI AIRPORT, JP) observed 2300 UTC 11 December 2018
Temperature: -1.0°C (30°F)
Dewpoint: -1.0°C (30°F) [RH = 100%]
Pressure (altimeter): 29.97 inches Hg (1015.0 mb)
Winds: calm
Visibility: 0.93 miles (1.50 km)
Ceiling: 1500 feet AGL
Clouds: few clouds at 300 feet AGL
scattered clouds at 600 feet AGL
broken clouds at 1500 feet AGL
Weather: -SN BR  (light snow, mist)

 AIRPORT MAP

 RUNWAY INFORMATION
Runway 02 Runway length 8202 ft Runway width 148 ft
Runway elevation 283 ft Runway displaced threshold 0 ft Runway heading 11
Runway 20 Runway length 8202 ft Runway width 148 ft
Runway elevation 298 ft Runway displaced threshold 0 ft Runway heading 191

 AIRPORT FREQUENCIES
Type ACC Name SAPPORO CO Frequency 124.5 MHZ
Type RDO Name RDO Frequency 118.2 MHZ

 AIRPORT NEAR NAVIGATION AIDS
Type VOR-DME Name Hanamaki Frequency 112800 KHZ



Powered by Virtual Airlines Manager [v2.6.2]